Arco, Minnesota
Current Conditions -  °F | °C
As of 6:55 PM on Tuesday 21 Oct 2014 (Local Time) from KMML Reporting Station
Clear Clear  
Wind Chill: 63°   Ceiling: Unl
Heat Index: 63°   Visibility: 10mi
Dew Point: 39°   Wind: 14mph
Humidity: 42%   Direction: 150°SSE
Pressure: 30"   Gusts: NA
Location:  44.38°N, 96.18°W
Report Text: KMML 212355Z AUTO 15012KT 10SM CLR 17/04 A3000 RMK AO1 10220 20170 402200010 54000
Loading
Personal Weather Stations






























Interactive Weather Map
Tropical Storm Tracking
New forecast layout! Learn more

10-Day Weather Forecast

Advertisements
Track Severe Weather on mobile